sensor_id;sensor_type;location;lat;lon;timestamp;P1;durP1;ratioP1;P2;durP2;ratioP2
75191;SDS011;63771;52.580;9.734;2023-12-20T00:01:19;2.83;;;1.43;;
75191;SDS011;63771;52.580;9.734;2023-12-20T00:03:44;10.10;;;1.83;;
75191;SDS011;63771;52.580;9.734;2023-12-20T00:06:10;5.60;;;1.93;;
75191;SDS011;63771;52.580;9.734;2023-12-20T00:08:35;2.75;;;1.60;;
75191;SDS011;63771;52.580;9.734;2023-12-20T00:11:01;2.83;;;1.30;;
75191;SDS011;63771;52.580;9.734;2023-12-20T00:13:26;5.93;;;1.65;;
75191;SDS011;63771;52.580;9.734;2023-12-20T00:15:51;2.78;;;1.35;;
75191;SDS011;63771;52.580;9.734;2023-12-20T00:18:17;2.20;;;1.43;;
75191;SDS011;63771;52.580;9.734;2023-12-20T00:20:42;3.80;;;1.57;;
75191;SDS011;63771;52.580;9.734;2023-12-20T00:23:07;4.20;;;1.50;;
75191;SDS011;63771;52.580;9.734;2023-12-20T00:25:33;3.72;;;1.67;;
75191;SDS011;63771;52.580;9.734;2023-12-20T00:27:59;5.18;;;1.25;;
75191;SDS011;63771;52.580;9.734;2023-12-20T00:30:25;4.40;;;2.23;;
75191;SDS011;63771;52.580;9.734;2023-12-20T00:32:50;8.38;;;1.95;;
75191;SDS011;63771;52.580;9.734;2023-12-20T00:35:15;3.47;;;1.70;;
75191;SDS011;63771;52.580;9.734;2023-12-20T00:37:42;6.15;;;2.33;;
75191;SDS011;63771;52.580;9.734;2023-12-20T00:40:08;5.97;;;2.47;;
75191;SDS011;63771;52.580;9.734;2023-12-20T00:42:33;8.80;;;2.80;;
75191;SDS011;63771;52.580;9.734;2023-12-20T00:44:59;5.68;;;1.95;;
75191;SDS011;63771;52.580;9.734;2023-12-20T00:47:25;4.50;;;2.33;;
75191;SDS011;63771;52.580;9.734;2023-12-20T00:49:50;6.45;;;2.15;;
75191;SDS011;63771;52.580;9.734;2023-12-20T00:52:15;6.32;;;1.83;;
75191;SDS011;63771;52.580;9.734;2023-12-20T00:54:42;5.95;;;2.80;;
75191;SDS011;63771;52.580;9.734;2023-12-20T00:57:07;6.18;;;1.92;;
75191;SDS011;63771;52.580;9.734;2023-12-20T00:59:33;4.17;;;2.07;;
75191;SDS011;63771;52.580;9.734;2023-12-20T01:01:58;3.33;;;1.90;;
75191;SDS011;63771;52.580;9.734;2023-12-20T01:04:23;4.88;;;1.80;;
75191;SDS011;63771;52.580;9.734;2023-12-20T01:06:49;4.10;;;2.13;;
75191;SDS011;63771;52.580;9.734;2023-12-20T01:09:14;3.17;;;1.83;;
75191;SDS011;63771;52.580;9.734;2023-12-20T01:11:39;6.13;;;2.30;;
75191;SDS011;63771;52.580;9.734;2023-12-20T01:14:05;6.97;;;2.27;;
75191;SDS011;63771;52.580;9.734;2023-12-20T01:16:30;3.47;;;1.75;;
75191;SDS011;63771;52.580;9.734;2023-12-20T01:18:55;3.50;;;1.30;;
75191;SDS011;63771;52.580;9.734;2023-12-20T01:21:21;8.50;;;1.87;;
75191;SDS011;63771;52.580;9.734;2023-12-20T01:23:46;4.32;;;2.08;;
75191;SDS011;63771;52.580;9.734;2023-12-20T01:26:11;6.07;;;1.47;;
75191;SDS011;63771;52.580;9.734;2023-12-20T01:28:37;5.20;;;2.25;;
75191;SDS011;63771;52.580;9.734;2023-12-20T01:31:03;12.48;;;1.98;;
75191;SDS011;63771;52.580;9.734;2023-12-20T01:33:28;9.93;;;2.22;;
75191;SDS011;63771;52.580;9.734;2023-12-20T01:35:54;7.72;;;1.63;;
75191;SDS011;63771;52.580;9.734;2023-12-20T01:38:19;5.43;;;1.57;;
75191;SDS011;63771;52.580;9.734;2023-12-20T01:40:45;5.05;;;2.53;;
75191;SDS011;63771;52.580;9.734;2023-12-20T01:43:10;2.92;;;1.52;;
75191;SDS011;63771;52.580;9.734;2023-12-20T01:45:37;8.45;;;1.90;;
75191;SDS011;63771;52.580;9.734;2023-12-20T01:48:02;5.20;;;1.67;;
75191;SDS011;63771;52.580;9.734;2023-12-20T01:50:30;3.53;;;1.55;;
75191;SDS011;63771;52.580;9.734;2023-12-20T01:52:56;7.00;;;1.90;;
75191;SDS011;63771;52.580;9.734;2023-12-20T01:55:25;2.90;;;1.60;;
75191;SDS011;63771;52.580;9.734;2023-12-20T01:57:52;1.77;;;1.55;;
75191;SDS011;63771;52.580;9.734;2023-12-20T02:00:18;5.20;;;1.92;;
75191;SDS011;63771;52.580;9.734;2023-12-20T02:02:48;5.35;;;2.05;;
75191;SDS011;63771;52.580;9.734;2023-12-20T02:05:15;10.23;;;2.42;;
75191;SDS011;63771;52.580;9.734;2023-12-20T02:07:42;2.65;;;1.50;;
75191;SDS011;63771;52.580;9.734;2023-12-20T02:10:08;8.17;;;1.77;;
75191;SDS011;63771;52.580;9.734;2023-12-20T02:12:33;7.32;;;1.58;;
75191;SDS011;63771;52.580;9.734;2023-12-20T02:14:58;10.32;;;2.22;;
75191;SDS011;63771;52.580;9.734;2023-12-20T02:17:24;2.80;;;1.90;;
75191;SDS011;63771;52.580;9.734;2023-12-20T02:19:50;7.93;;;2.17;;
75191;SDS011;63771;52.580;9.734;2023-12-20T02:22:16;6.83;;;3.00;;
75191;SDS011;63771;52.580;9.734;2023-12-20T02:24:41;5.80;;;2.03;;
75191;SDS011;63771;52.580;9.734;2023-12-20T02:27:06;2.17;;;0.97;;
75191;SDS011;63771;52.580;9.734;2023-12-20T02:29:33;4.05;;;1.90;;
75191;SDS011;63771;52.580;9.734;2023-12-20T02:31:59;6.28;;;1.83;;
75191;SDS011;63771;52.580;9.734;2023-12-20T02:34:24;6.07;;;2.10;;
75191;SDS011;63771;52.580;9.734;2023-12-20T02:36:50;3.63;;;1.63;;
75191;SDS011;63771;52.580;9.734;2023-12-20T02:39:15;5.47;;;2.40;;
75191;SDS011;63771;52.580;9.734;2023-12-20T02:41:40;2.63;;;1.67;;
75191;SDS011;63771;52.580;9.734;2023-12-20T02:44:06;4.70;;;1.43;;
75191;SDS011;63771;52.580;9.734;2023-12-20T02:46:31;3.57;;;1.33;;
75191;SDS011;63771;52.580;9.734;2023-12-20T02:48:56;2.10;;;1.67;;
75191;SDS011;63771;52.580;9.734;2023-12-20T02:51:22;3.90;;;1.53;;
75191;SDS011;63771;52.580;9.734;2023-12-20T02:53:47;2.67;;;1.80;;
75191;SDS011;63771;52.580;9.734;2023-12-20T02:56:12;3.90;;;1.57;;
75191;SDS011;63771;52.580;9.734;2023-12-20T02:58:39;7.47;;;1.98;;
75191;SDS011;63771;52.580;9.734;2023-12-20T03:01:04;4.43;;;1.17;;
75191;SDS011;63771;52.580;9.734;2023-12-20T03:03:30;5.43;;;2.30;;
75191;SDS011;63771;52.580;9.734;2023-12-20T03:05:55;6.17;;;1.97;;
75191;SDS011;63771;52.580;9.734;2023-12-20T03:08:20;5.83;;;1.33;;
75191;SDS011;63771;52.580;9.734;2023-12-20T03:10:46;6.65;;;2.25;;
75191;SDS011;63771;52.580;9.734;2023-12-20T03:13:11;5.43;;;2.03;;
75191;SDS011;63771;52.580;9.734;2023-12-20T03:15:36;1.63;;;1.53;;
75191;SDS011;63771;52.580;9.734;2023-12-20T03:18:02;6.45;;;1.73;;
75191;SDS011;63771;52.580;9.734;2023-12-20T03:20:27;2.00;;;1.38;;
75191;SDS011;63771;52.580;9.734;2023-12-20T03:22:53;8.23;;;1.88;;
75191;SDS011;63771;52.580;9.734;2023-12-20T03:25:18;2.95;;;2.22;;
75191;SDS011;63771;52.580;9.734;2023-12-20T03:27:43;2.00;;;1.90;;
75191;SDS011;63771;52.580;9.734;2023-12-20T03:30:09;9.20;;;1.77;;
75191;SDS011;63771;52.580;9.734;2023-12-20T03:32:34;4.00;;;1.73;;
75191;SDS011;63771;52.580;9.734;2023-12-20T03:35:00;3.17;;;1.67;;
75191;SDS011;63771;52.580;9.734;2023-12-20T03:37:25;7.85;;;2.30;;
75191;SDS011;63771;52.580;9.734;2023-12-20T03:39:50;2.70;;;1.70;;
75191;SDS011;63771;52.580;9.734;2023-12-20T03:42:16;5.83;;;2.17;;
75191;SDS011;63771;52.580;9.734;2023-12-20T03:44:41;3.50;;;1.50;;
75191;SDS011;63771;52.580;9.734;2023-12-20T03:47:07;3.27;;;1.80;;
75191;SDS011;63771;52.580;9.734;2023-12-20T03:49:32;3.22;;;1.98;;
75191;SDS011;63771;52.580;9.734;2023-12-20T03:51:58;3.20;;;1.67;;
75191;SDS011;63771;52.580;9.734;2023-12-20T03:54:23;7.10;;;2.23;;
75191;SDS011;63771;52.580;9.734;2023-12-20T03:56:49;3.03;;;1.77;;
75191;SDS011;63771;52.580;9.734;2023-12-20T03:59:14;7.40;;;1.37;;
75191;SDS011;63771;52.580;9.734;2023-12-20T04:01:43;4.43;;;2.00;;
75191;SDS011;63771;52.580;9.734;2023-12-20T04:04:09;2.85;;;1.95;;
75191;SDS011;63771;52.580;9.734;2023-12-20T04:06:35;7.30;;;1.85;;
75191;SDS011;63771;52.580;9.734;2023-12-20T04:09:01;2.63;;;1.48;;
75191;SDS011;63771;52.580;9.734;2023-12-20T04:11:26;4.70;;;1.80;;
75191;SDS011;63771;52.580;9.734;2023-12-20T04:13:51;7.80;;;2.10;;
75191;SDS011;63771;52.580;9.734;2023-12-20T04:16:16;6.63;;;2.00;;
75191;SDS011;63771;52.580;9.734;2023-12-20T04:18:42;3.93;;;1.70;;
75191;SDS011;63771;52.580;9.734;2023-12-20T04:21:07;4.73;;;1.77;;
75191;SDS011;63771;52.580;9.734;2023-12-20T04:23:32;6.30;;;1.50;;
75191;SDS011;63771;52.580;9.734;2023-12-20T04:25:58;7.57;;;2.47;;
75191;SDS011;63771;52.580;9.734;2023-12-20T04:28:23;5.90;;;2.20;;
75191;SDS011;63771;52.580;9.734;2023-12-20T04:30:48;3.13;;;2.20;;
75191;SDS011;63771;52.580;9.734;2023-12-20T04:33:14;9.60;;;2.08;;
75191;SDS011;63771;52.580;9.734;2023-12-20T04:35:39;4.47;;;1.90;;
75191;SDS011;63771;52.580;9.734;2023-12-20T04:38:06;7.60;;;2.33;;
75191;SDS011;63771;52.580;9.734;2023-12-20T04:40:31;5.72;;;1.55;;
75191;SDS011;63771;52.580;9.734;2023-12-20T04:42:56;2.47;;;1.67;;
75191;SDS011;63771;52.580;9.734;2023-12-20T04:45:22;3.23;;;1.97;;
75191;SDS011;63771;52.580;9.734;2023-12-20T04:47:48;3.47;;;2.00;;
75191;SDS011;63771;52.580;9.734;2023-12-20T04:50:14;5.67;;;2.30;;
75191;SDS011;63771;52.580;9.734;2023-12-20T04:52:39;2.33;;;2.10;;
75191;SDS011;63771;52.580;9.734;2023-12-20T04:55:05;7.15;;;2.22;;
75191;SDS011;63771;52.580;9.734;2023-12-20T04:57:30;2.28;;;2.00;;
75191;SDS011;63771;52.580;9.734;2023-12-20T04:59:56;3.45;;;2.05;;
75191;SDS011;63771;52.580;9.734;2023-12-20T05:02:21;3.97;;;2.05;;
75191;SDS011;63771;52.580;9.734;2023-12-20T05:04:47;4.60;;;2.17;;
75191;SDS011;63771;52.580;9.734;2023-12-20T05:07:12;2.88;;;2.05;;
75191;SDS011;63771;52.580;9.734;2023-12-20T05:09:37;7.63;;;2.20;;
75191;SDS011;63771;52.580;9.734;2023-12-20T05:12:03;6.67;;;2.77;;
75191;SDS011;63771;52.580;9.734;2023-12-20T05:14:28;9.30;;;2.33;;
75191;SDS011;63771;52.580;9.734;2023-12-20T05:16:54;5.80;;;2.10;;
75191;SDS011;63771;52.580;9.734;2023-12-20T05:19:19;7.10;;;2.03;;
75191;SDS011;63771;52.580;9.734;2023-12-20T05:21:44;5.63;;;2.27;;
75191;SDS011;63771;52.580;9.734;2023-12-20T05:24:09;5.63;;;2.43;;
75191;SDS011;63771;52.580;9.734;2023-12-20T05:26:35;8.07;;;2.93;;
75191;SDS011;63771;52.580;9.734;2023-12-20T05:29:00;6.03;;;2.40;;
75191;SDS011;63771;52.580;9.734;2023-12-20T05:31:26;8.05;;;2.60;;
75191;SDS011;63771;52.580;9.734;2023-12-20T05:33:51;5.40;;;1.83;;
75191;SDS011;63771;52.580;9.734;2023-12-20T05:36:16;4.67;;;2.20;;
75191;SDS011;63771;52.580;9.734;2023-12-20T05:38:42;8.00;;;2.30;;
75191;SDS011;63771;52.580;9.734;2023-12-20T05:41:07;6.73;;;2.07;;
75191;SDS011;63771;52.580;9.734;2023-12-20T05:43:32;9.13;;;2.03;;
75191;SDS011;63771;52.580;9.734;2023-12-20T05:45:58;4.83;;;2.03;;
75191;SDS011;63771;52.580;9.734;2023-12-20T05:48:23;4.40;;;1.77;;
75191;SDS011;63771;52.580;9.734;2023-12-20T05:50:48;6.17;;;3.03;;
75191;SDS011;63771;52.580;9.734;2023-12-20T05:53:14;7.60;;;2.58;;
75191;SDS011;63771;52.580;9.734;2023-12-20T05:55:39;3.87;;;2.07;;
75191;SDS011;63771;52.580;9.734;2023-12-20T05:58:05;5.88;;;1.95;;
75191;SDS011;63771;52.580;9.734;2023-12-20T06:00:30;3.72;;;2.20;;
75191;SDS011;63771;52.580;9.734;2023-12-20T06:02:55;6.03;;;2.20;;
75191;SDS011;63771;52.580;9.734;2023-12-20T06:05:21;8.50;;;2.20;;
75191;SDS011;63771;52.580;9.734;2023-12-20T06:07:46;4.18;;;2.50;;
75191;SDS011;63771;52.580;9.734;2023-12-20T06:10:13;6.05;;;2.38;;
75191;SDS011;63771;52.580;9.734;2023-12-20T06:12:39;5.22;;;2.33;;
75191;SDS011;63771;52.580;9.734;2023-12-20T06:15:04;7.78;;;2.42;;
75191;SDS011;63771;52.580;9.734;2023-12-20T06:17:30;8.80;;;3.30;;
75191;SDS011;63771;52.580;9.734;2023-12-20T06:19:56;5.43;;;1.98;;
75191;SDS011;63771;52.580;9.734;2023-12-20T06:22:21;7.35;;;1.98;;
75191;SDS011;63771;52.580;9.734;2023-12-20T06:24:47;4.30;;;1.73;;
75191;SDS011;63771;52.580;9.734;2023-12-20T06:27:12;10.00;;;1.90;;
75191;SDS011;63771;52.580;9.734;2023-12-20T06:29:38;6.53;;;2.10;;
75191;SDS011;63771;52.580;9.734;2023-12-20T06:32:03;5.65;;;2.17;;
75191;SDS011;63771;52.580;9.734;2023-12-20T06:34:29;5.63;;;2.30;;
75191;SDS011;63771;52.580;9.734;2023-12-20T06:36:54;5.72;;;2.03;;
75191;SDS011;63771;52.580;9.734;2023-12-20T06:39:20;6.70;;;2.53;;
75191;SDS011;63771;52.580;9.734;2023-12-20T06:41:45;7.40;;;2.30;;
75191;SDS011;63771;52.580;9.734;2023-12-20T06:44:10;10.05;;;2.13;;
75191;SDS011;63771;52.580;9.734;2023-12-20T06:46:36;9.48;;;3.15;;
75191;SDS011;63771;52.580;9.734;2023-12-20T06:49:01;9.60;;;2.30;;
75191;SDS011;63771;52.580;9.734;2023-12-20T06:51:27;4.67;;;2.07;;
75191;SDS011;63771;52.580;9.734;2023-12-20T06:53:53;10.43;;;2.80;;
75191;SDS011;63771;52.580;9.734;2023-12-20T06:56:18;10.73;;;2.42;;
75191;SDS011;63771;52.580;9.734;2023-12-20T06:58:44;6.28;;;2.00;;
75191;SDS011;63771;52.580;9.734;2023-12-20T07:01:13;5.45;;;2.40;;
75191;SDS011;63771;52.580;9.734;2023-12-20T07:03:38;6.82;;;2.33;;
75191;SDS011;63771;52.580;9.734;2023-12-20T07:06:05;8.95;;;2.35;;
75191;SDS011;63771;52.580;9.734;2023-12-20T07:08:30;8.90;;;2.47;;
75191;SDS011;63771;52.580;9.734;2023-12-20T07:10:56;6.07;;;1.70;;
75191;SDS011;63771;52.580;9.734;2023-12-20T07:13:21;4.57;;;1.83;;
75191;SDS011;63771;52.580;9.734;2023-12-20T07:15:47;9.27;;;2.10;;
75191;SDS011;63771;52.580;9.734;2023-12-20T07:18:13;8.52;;;2.97;;
75191;SDS011;63771;52.580;9.734;2023-12-20T07:20:38;7.55;;;2.08;;
75191;SDS011;63771;52.580;9.734;2023-12-20T07:23:04;5.45;;;2.05;;
75191;SDS011;63771;52.580;9.734;2023-12-20T07:25:29;3.92;;;2.15;;
75191;SDS011;63771;52.580;9.734;2023-12-20T07:27:57;8.52;;;2.30;;
75191;SDS011;63771;52.580;9.734;2023-12-20T07:30:22;8.57;;;2.97;;
75191;SDS011;63771;52.580;9.734;2023-12-20T07:32:48;4.63;;;2.30;;
75191;SDS011;63771;52.580;9.734;2023-12-20T07:35:13;6.87;;;2.27;;
75191;SDS011;63771;52.580;9.734;2023-12-20T07:37:40;12.25;;;2.53;;
75191;SDS011;63771;52.580;9.734;2023-12-20T07:40:05;5.43;;;2.72;;
75191;SDS011;63771;52.580;9.734;2023-12-20T07:42:31;8.98;;;2.60;;
75191;SDS011;63771;52.580;9.734;2023-12-20T07:44:57;8.00;;;2.30;;
75191;SDS011;63771;52.580;9.734;2023-12-20T07:47:22;6.97;;;2.15;;
75191;SDS011;63771;52.580;9.734;2023-12-20T07:49:48;6.13;;;2.17;;
75191;SDS011;63771;52.580;9.734;2023-12-20T07:52:14;7.90;;;2.83;;
75191;SDS011;63771;52.580;9.734;2023-12-20T07:54:39;7.22;;;2.50;;
75191;SDS011;63771;52.580;9.734;2023-12-20T07:57:05;8.18;;;2.08;;
75191;SDS011;63771;52.580;9.734;2023-12-20T07:59:30;10.73;;;2.22;;
75191;SDS011;63771;52.580;9.734;2023-12-20T08:01:56;8.50;;;2.23;;
75191;SDS011;63771;52.580;9.734;2023-12-20T08:04:21;3.20;;;1.95;;
75191;SDS011;63771;52.580;9.734;2023-12-20T08:06:47;3.08;;;2.00;;
75191;SDS011;63771;52.580;9.734;2023-12-20T08:09:12;5.27;;;2.50;;
75191;SDS011;63771;52.580;9.734;2023-12-20T08:11:38;6.05;;;1.95;;
75191;SDS011;63771;52.580;9.734;2023-12-20T08:14:03;6.20;;;2.57;;
75191;SDS011;63771;52.580;9.734;2023-12-20T08:16:28;4.80;;;1.73;;
75191;SDS011;63771;52.580;9.734;2023-12-20T08:18:54;4.23;;;1.83;;
75191;SDS011;63771;52.580;9.734;2023-12-20T08:21:19;5.97;;;1.85;;
75191;SDS011;63771;52.580;9.734;2023-12-20T08:23:47;7.05;;;2.28;;
75191;SDS011;63771;52.580;9.734;2023-12-20T08:26:12;9.65;;;2.30;;
75191;SDS011;63771;52.580;9.734;2023-12-20T08:28:38;4.13;;;1.85;;
75191;SDS011;63771;52.580;9.734;2023-12-20T08:31:03;6.57;;;2.50;;
75191;SDS011;63771;52.580;9.734;2023-12-20T08:33:29;4.18;;;2.03;;
75191;SDS011;63771;52.580;9.734;2023-12-20T08:35:54;6.28;;;2.67;;
75191;SDS011;63771;52.580;9.734;2023-12-20T08:38:19;5.60;;;2.03;;
75191;SDS011;63771;52.580;9.734;2023-12-20T08:40:45;9.27;;;2.53;;
75191;SDS011;63771;52.580;9.734;2023-12-20T08:43:10;6.40;;;2.80;;
75191;SDS011;63771;52.580;9.734;2023-12-20T08:45:36;6.67;;;2.10;;
75191;SDS011;63771;52.580;9.734;2023-12-20T08:48:01;9.27;;;2.60;;
75191;SDS011;63771;52.580;9.734;2023-12-20T08:50:28;7.97;;;2.47;;
75191;SDS011;63771;52.580;9.734;2023-12-20T08:52:53;8.68;;;3.08;;
75191;SDS011;63771;52.580;9.734;2023-12-20T08:55:19;6.13;;;1.98;;
75191;SDS011;63771;52.580;9.734;2023-12-20T08:57:44;4.22;;;2.13;;
75191;SDS011;63771;52.580;9.734;2023-12-20T09:00:10;6.57;;;2.20;;
75191;SDS011;63771;52.580;9.734;2023-12-20T09:02:35;7.65;;;2.40;;
75191;SDS011;63771;52.580;9.734;2023-12-20T09:05:02;14.30;;;3.42;;
75191;SDS011;63771;52.580;9.734;2023-12-20T09:07:28;5.15;;;2.45;;
75191;SDS011;63771;52.580;9.734;2023-12-20T09:09:56;9.23;;;3.08;;
75191;SDS011;63771;52.580;9.734;2023-12-20T09:12:22;10.93;;;3.42;;
75191;SDS011;63771;52.580;9.734;2023-12-20T09:14:48;6.17;;;3.00;;
75191;SDS011;63771;52.580;9.734;2023-12-20T09:17:15;5.05;;;2.70;;
75191;SDS011;63771;52.580;9.734;2023-12-20T09:19:41;4.97;;;2.63;;
75191;SDS011;63771;52.580;9.734;2023-12-20T09:22:07;8.40;;;2.80;;
75191;SDS011;63771;52.580;9.734;2023-12-20T09:24:32;5.78;;;2.47;;
75191;SDS011;63771;52.580;9.734;2023-12-20T09:26:58;7.80;;;2.40;;
75191;SDS011;63771;52.580;9.734;2023-12-20T09:29:23;6.97;;;2.65;;
75191;SDS011;63771;52.580;9.734;2023-12-20T09:31:49;12.23;;;4.38;;
75191;SDS011;63771;52.580;9.734;2023-12-20T09:34:15;11.00;;;3.33;;
75191;SDS011;63771;52.580;9.734;2023-12-20T09:36:41;6.40;;;3.13;;
75191;SDS011;63771;52.580;9.734;2023-12-20T09:39:11;9.80;;;2.75;;
75191;SDS011;63771;52.580;9.734;2023-12-20T09:41:43;5.03;;;2.88;;
75191;SDS011;63771;52.580;9.734;2023-12-20T09:44:11;5.38;;;2.58;;
75191;SDS011;63771;52.580;9.734;2023-12-20T09:46:40;16.58;;;3.38;;
75191;SDS011;63771;52.580;9.734;2023-12-20T09:49:08;10.90;;;2.78;;
75191;SDS011;63771;52.580;9.734;2023-12-20T09:51:34;7.70;;;2.80;;
75191;SDS011;63771;52.580;9.734;2023-12-20T09:54:00;6.05;;;2.53;;
75191;SDS011;63771;52.580;9.734;2023-12-20T09:58:54;9.90;;;2.60;;
75191;SDS011;63771;52.580;9.734;2023-12-20T10:01:19;8.88;;;2.83;;
75191;SDS011;63771;52.580;9.734;2023-12-20T10:03:46;10.80;;;3.00;;
75191;SDS011;63771;52.580;9.734;2023-12-20T10:06:11;6.75;;;2.25;;
75191;SDS011;63771;52.580;9.734;2023-12-20T10:08:37;10.20;;;2.75;;
75191;SDS011;63771;52.580;9.734;2023-12-20T10:11:03;13.48;;;2.63;;
75191;SDS011;63771;52.580;9.734;2023-12-20T10:13:30;5.93;;;2.75;;
75191;SDS011;63771;52.580;9.734;2023-12-20T10:15:55;5.85;;;2.28;;
75191;SDS011;63771;52.580;9.734;2023-12-20T10:18:22;9.35;;;2.42;;
75191;SDS011;63771;52.580;9.734;2023-12-20T10:20:47;9.80;;;2.63;;
75191;SDS011;63771;52.580;9.734;2023-12-20T10:23:13;4.97;;;2.17;;
75191;SDS011;63771;52.580;9.734;2023-12-20T10:25:40;6.97;;;2.42;;
75191;SDS011;63771;52.580;9.734;2023-12-20T10:28:10;8.10;;;2.65;;
75191;SDS011;63771;52.580;9.734;2023-12-20T10:30:38;6.28;;;2.30;;
75191;SDS011;63771;52.580;9.734;2023-12-20T10:33:05;5.03;;;2.33;;
75191;SDS011;63771;52.580;9.734;2023-12-20T10:35:32;7.00;;;1.83;;
75191;SDS011;63771;52.580;9.734;2023-12-20T10:37:58;4.07;;;2.47;;
75191;SDS011;63771;52.580;9.734;2023-12-20T10:40:29;8.38;;;2.15;;
75191;SDS011;63771;52.580;9.734;2023-12-20T10:42:55;5.03;;;2.13;;
75191;SDS011;63771;52.580;9.734;2023-12-20T10:45:21;6.65;;;2.63;;
75191;SDS011;63771;52.580;9.734;2023-12-20T10:47:47;12.45;;;2.47;;
75191;SDS011;63771;52.580;9.734;2023-12-20T10:50:14;7.15;;;2.53;;
75191;SDS011;63771;52.580;9.734;2023-12-20T10:52:40;5.93;;;1.90;;
75191;SDS011;63771;52.580;9.734;2023-12-20T10:55:07;9.23;;;2.22;;
75191;SDS011;63771;52.580;9.734;2023-12-20T10:57:33;7.35;;;2.20;;
75191;SDS011;63771;52.580;9.734;2023-12-20T11:00:01;5.53;;;2.13;;
75191;SDS011;63771;52.580;9.734;2023-12-20T11:02:32;3.78;;;1.80;;
75191;SDS011;63771;52.580;9.734;2023-12-20T11:05:16;5.63;;;2.05;;
75191;SDS011;63771;52.580;9.734;2023-12-20T11:08:06;5.20;;;2.05;;
75191;SDS011;63771;52.580;9.734;2023-12-20T11:16:32;9.82;;;1.98;;
75191;SDS011;63771;52.580;9.734;2023-12-20T11:18:57;4.10;;;2.08;;
75191;SDS011;63771;52.580;9.734;2023-12-20T11:21:23;5.97;;;1.90;;
75191;SDS011;63771;52.580;9.734;2023-12-20T11:23:48;5.33;;;2.27;;
75191;SDS011;63771;52.580;9.734;2023-12-20T11:26:15;6.20;;;1.65;;
75191;SDS011;63771;52.580;9.734;2023-12-20T11:28:41;7.78;;;1.48;;
75191;SDS011;63771;52.580;9.734;2023-12-20T11:31:07;4.15;;;1.90;;
75191;SDS011;63771;52.580;9.734;2023-12-20T11:33:37;3.55;;;1.30;;
75191;SDS011;63771;52.580;9.734;2023-12-20T11:36:07;5.55;;;1.88;;
75191;SDS011;63771;52.580;9.734;2023-12-20T11:38:38;4.80;;;1.10;;
75191;SDS011;63771;52.580;9.734;2023-12-20T11:41:06;6.55;;;1.15;;
75191;SDS011;63771;52.580;9.734;2023-12-20T11:43:32;3.17;;;1.55;;
75191;SDS011;63771;52.580;9.734;2023-12-20T11:46:07;3.08;;;1.00;;
75191;SDS011;63771;52.580;9.734;2023-12-20T11:48:34;3.08;;;1.00;;
75191;SDS011;63771;52.580;9.734;2023-12-20T11:51:01;3.45;;;1.20;;
75191;SDS011;63771;52.580;9.734;2023-12-20T11:53:28;3.65;;;1.08;;
75191;SDS011;63771;52.580;9.734;2023-12-20T11:55:55;5.43;;;1.17;;
75191;SDS011;63771;52.580;9.734;2023-12-20T11:58:21;3.30;;;1.60;;
75191;SDS011;63771;52.580;9.734;2023-12-20T12:00:48;1.03;;;1.03;;
75191;SDS011;63771;52.580;9.734;2023-12-20T12:05:40;3.50;;;1.20;;
75191;SDS011;63771;52.580;9.734;2023-12-20T12:08:06;5.70;;;1.27;;
75191;SDS011;63771;52.580;9.734;2023-12-20T12:10:32;1.35;;;1.10;;
75191;SDS011;63771;52.580;9.734;2023-12-20T12:12:58;2.05;;;1.10;;
75191;SDS011;63771;52.580;9.734;2023-12-20T12:15:23;4.10;;;1.23;;
75191;SDS011;63771;52.580;9.734;2023-12-20T12:17:55;4.32;;;1.08;;
75191;SDS011;63771;52.580;9.734;2023-12-20T12:20:21;1.25;;;1.10;;
75191;SDS011;63771;52.580;9.734;2023-12-20T12:22:57;1.35;;;1.25;;
75191;SDS011;63771;52.580;9.734;2023-12-20T12:25:23;8.52;;;1.77;;
75191;SDS011;63771;52.580;9.734;2023-12-20T12:27:48;2.78;;;1.00;;
75191;SDS011;63771;52.580;9.734;2023-12-20T12:30:16;2.17;;;0.85;;
75191;SDS011;63771;52.580;9.734;2023-12-20T12:32:43;3.67;;;1.33;;
75191;SDS011;63771;52.580;9.734;2023-12-20T12:35:09;0.63;;;0.60;;
75191;SDS011;63771;52.580;9.734;2023-12-20T12:37:35;3.28;;;1.08;;
75191;SDS011;63771;52.580;9.734;2023-12-20T12:40:05;3.78;;;1.02;;
75191;SDS011;63771;52.580;9.734;2023-12-20T12:42:32;3.42;;;0.95;;
75191;SDS011;63771;52.580;9.734;2023-12-20T12:44:57;2.97;;;0.88;;
75191;SDS011;63771;52.580;9.734;2023-12-20T12:47:22;2.50;;;1.13;;
75191;SDS011;63771;52.580;9.734;2023-12-20T12:49:49;3.35;;;1.13;;
75191;SDS011;63771;52.580;9.734;2023-12-20T12:52:17;4.75;;;1.17;;
75191;SDS011;63771;52.580;9.734;2023-12-20T12:54:42;1.23;;;1.00;;
75191;SDS011;63771;52.580;9.734;2023-12-20T12:57:09;4.60;;;0.80;;
75191;SDS011;63771;52.580;9.734;2023-12-20T12:59:35;1.30;;;0.68;;
75191;SDS011;63771;52.580;9.734;2023-12-20T13:02:00;3.17;;;1.03;;
75191;SDS011;63771;52.580;9.734;2023-12-20T13:04:26;7.00;;;1.73;;
75191;SDS011;63771;52.580;9.734;2023-12-20T13:06:51;3.63;;;0.90;;
75191;SDS011;63771;52.580;9.734;2023-12-20T13:09:16;2.08;;;1.00;;
75191;SDS011;63771;52.580;9.734;2023-12-20T13:11:41;3.23;;;0.73;;
75191;SDS011;63771;52.580;9.734;2023-12-20T13:14:07;4.20;;;1.37;;
75191;SDS011;63771;52.580;9.734;2023-12-20T13:16:35;1.63;;;1.10;;
75191;SDS011;63771;52.580;9.734;2023-12-20T13:19:01;1.08;;;0.60;;
75191;SDS011;63771;52.580;9.734;2023-12-20T13:21:26;1.90;;;0.88;;
75191;SDS011;63771;52.580;9.734;2023-12-20T13:23:52;4.00;;;0.95;;
75191;SDS011;63771;52.580;9.734;2023-12-20T13:26:19;2.15;;;0.77;;
75191;SDS011;63771;52.580;9.734;2023-12-20T13:28:44;5.57;;;1.23;;
75191;SDS011;63771;52.580;9.734;2023-12-20T13:31:09;1.42;;;0.70;;
75191;SDS011;63771;52.580;9.734;2023-12-20T13:33:35;5.18;;;1.25;;
75191;SDS011;63771;52.580;9.734;2023-12-20T13:36:00;1.93;;;1.17;;
75191;SDS011;63771;52.580;9.734;2023-12-20T13:38:25;0.82;;;0.80;;
75191;SDS011;63771;52.580;9.734;2023-12-20T13:40:51;0.80;;;0.73;;
75191;SDS011;63771;52.580;9.734;2023-12-20T13:43:16;5.23;;;1.17;;
75191;SDS011;63771;52.580;9.734;2023-12-20T13:45:45;2.05;;;0.75;;
75191;SDS011;63771;52.580;9.734;2023-12-20T13:48:11;2.33;;;0.80;;
75191;SDS011;63771;52.580;9.734;2023-12-20T13:50:37;7.90;;;1.02;;
75191;SDS011;63771;52.580;9.734;2023-12-20T13:53:02;2.77;;;0.70;;
75191;SDS011;63771;52.580;9.734;2023-12-20T13:55:29;1.98;;;0.82;;
75191;SDS011;63771;52.580;9.734;2023-12-20T13:57:55;4.40;;;0.80;;
75191;SDS011;63771;52.580;9.734;2023-12-20T14:00:22;4.25;;;0.95;;
75191;SDS011;63771;52.580;9.734;2023-12-20T14:02:47;3.50;;;1.30;;
75191;SDS011;63771;52.580;9.734;2023-12-20T14:05:13;3.58;;;0.77;;
75191;SDS011;63771;52.580;9.734;2023-12-20T14:07:42;5.70;;;1.33;;
75191;SDS011;63771;52.580;9.734;2023-12-20T14:10:11;2.08;;;1.08;;
75191;SDS011;63771;52.580;9.734;2023-12-20T14:12:40;1.65;;;0.80;;
75191;SDS011;63771;52.580;9.734;2023-12-20T14:15:06;2.78;;;1.15;;
75191;SDS011;63771;52.580;9.734;2023-12-20T14:17:39;1.92;;;1.30;;
75191;SDS011;63771;52.580;9.734;2023-12-20T14:20:07;2.10;;;0.75;;
75191;SDS011;63771;52.580;9.734;2023-12-20T14:22:33;4.43;;;0.93;;
75191;SDS011;63771;52.580;9.734;2023-12-20T14:24:59;3.92;;;1.20;;
75191;SDS011;63771;52.580;9.734;2023-12-20T14:27:24;6.22;;;1.00;;
75191;SDS011;63771;52.580;9.734;2023-12-20T14:29:53;2.78;;;1.60;;
75191;SDS011;63771;52.580;9.734;2023-12-20T14:32:19;2.45;;;1.30;;
75191;SDS011;63771;52.580;9.734;2023-12-20T14:34:44;5.80;;;1.05;;
75191;SDS011;63771;52.580;9.734;2023-12-20T14:37:09;5.07;;;0.80;;
75191;SDS011;63771;52.580;9.734;2023-12-20T14:39:35;1.50;;;0.80;;
75191;SDS011;63771;52.580;9.734;2023-12-20T14:42:04;3.20;;;0.77;;
75191;SDS011;63771;52.580;9.734;2023-12-20T14:44:29;2.83;;;1.40;;
75191;SDS011;63771;52.580;9.734;2023-12-20T14:46:55;8.43;;;1.30;;
75191;SDS011;63771;52.580;9.734;2023-12-20T14:49:20;7.25;;;1.38;;
75191;SDS011;63771;52.580;9.734;2023-12-20T14:51:45;1.03;;;0.67;;